createdAt,value
2022-09-07T00:00:57.110Z,96729.72
2022-09-07T00:03:24.182Z,96722.06
2022-09-07T00:05:51.707Z,96727.88
2022-09-07T00:08:20.782Z,96717.81
2022-09-07T00:10:58.799Z,96715.72
2022-09-07T00:13:28.146Z,96708.56
2022-09-07T00:15:54.797Z,96709.63
2022-09-07T00:18:21.599Z,96713.31
2022-09-07T00:20:58.066Z,96703.81
2022-09-07T00:23:24.695Z,96704.34
2022-09-07T00:25:53.993Z,96702.75
2022-09-07T00:28:20.784Z,96706.44
2022-09-07T00:30:47.301Z,96708.34
2022-09-07T00:33:13.788Z,96706.19
2022-09-07T00:35:41.576Z,96704.84
2022-09-07T00:38:08.937Z,96707.78
2022-09-07T00:40:35.613Z,96692.69
2022-09-07T00:43:02.039Z,96703.53
2022-09-07T00:45:29.280Z,96701.94
2022-09-07T00:48:02.505Z,96691.09
2022-09-07T00:50:41.089Z,96691.88
2022-09-07T00:53:15.884Z,96696.66
2022-09-07T00:55:45.627Z,96687.91
2022-09-07T00:58:13.215Z,96696.66
2022-09-07T01:00:41.781Z,96693.47
2022-09-07T01:03:10.315Z,96704.81
2022-09-07T01:05:42.748Z,96712.81
2022-09-07T01:08:12.037Z,96701.44
2022-09-07T01:10:39.019Z,96704.06
2022-09-07T01:13:05.888Z,96701.94
2022-09-07T01:16:06.573Z,96709.09
2022-09-07T01:18:38.758Z,96698.75
2022-09-07T01:21:21.347Z,96697.97
2022-09-07T01:24:25.719Z,96699.81
2022-09-07T01:26:52.332Z,96703.25
2022-09-07T01:29:18.769Z,96699.56
2022-09-07T01:31:54.273Z,96697.69
2022-09-07T01:34:24.890Z,96703.47
2022-09-07T01:37:04.380Z,96704.00
2022-09-07T01:39:48.148Z,96693.94
2022-09-07T01:42:19.037Z,96690.44
2022-09-07T01:44:53.454Z,96696.25
2022-09-07T01:47:37.130Z,96703.13
2022-09-07T01:50:10.323Z,96701.56
2022-09-07T01:52:53.281Z,96701.81
2022-09-07T01:55:46.027Z,96698.63
2022-09-07T01:58:21.461Z,96703.38
2022-09-07T02:01:15.456Z,96693.31
2022-09-07T02:03:51.320Z,96698.63
2022-09-07T02:06:33.664Z,96703.34
2022-09-07T02:09:04.661Z,96699.88
2022-09-07T02:11:38.223Z,96701.22
2022-09-07T02:14:18.504Z,96696.72
2022-09-07T02:16:55.326Z,96691.97
2022-09-07T02:19:25.112Z,96696.06
2022-09-07T02:21:59.273Z,96693.13
2022-09-07T02:24:35.218Z,96692.31
2022-09-07T02:27:12.353Z,96697.59
2022-09-07T02:29:39.059Z,96694.66
2022-09-07T02:32:05.830Z,96700.75
2022-09-07T02:34:32.956Z,96700.25
2022-09-07T02:37:02.161Z,96688.63
2022-09-07T02:39:28.749Z,96688.63
2022-09-07T02:41:55.204Z,96688.34
2022-09-07T02:44:26.622Z,96695.50
2022-09-07T02:47:52.289Z,96688.59
2022-09-07T02:50:44.551Z,96684.34
2022-09-07T02:53:38.646Z,96690.75
2022-09-07T02:56:14.594Z,96689.94
2022-09-07T02:58:47.110Z,96683.34
2022-09-07T03:01:39.267Z,96691.78
2022-09-07T03:04:31.135Z,96693.69
2022-09-07T03:07:09.352Z,96688.72
2022-09-07T03:09:45.562Z,96690.84
2022-09-07T03:12:12.737Z,96679.16
2022-09-07T03:14:41.851Z,96690.81
2022-09-07T03:17:08.839Z,96680.75
2022-09-07T03:19:35.828Z,96679.72
2022-09-07T03:22:03.559Z,96678.91
2022-09-07T03:24:30.075Z,96675.47
2022-09-07T03:26:57.309Z,96675.19
2022-09-07T03:29:24.101Z,96677.31
2022-09-07T03:31:50.678Z,96674.13
2022-09-07T03:34:17.360Z,96675.72
2022-09-07T03:36:43.916Z,96682.88
2022-09-07T03:39:12.445Z,96680.75
2022-09-07T03:41:38.976Z,96684.22
2022-09-07T03:44:06.691Z,96687.16
2022-09-07T03:46:34.273Z,96682.34
2022-09-07T03:49:00.862Z,96680.75
2022-09-07T03:51:27.463Z,96686.56
2022-09-07T03:53:54.302Z,96688.44
2022-09-07T03:56:22.723Z,96680.00
2022-09-07T03:58:50.169Z,96687.44
2022-09-07T04:01:20.210Z,96688.19
2022-09-07T04:03:47.822Z,96682.06
2022-09-07T04:06:15.449Z,96684.75
2022-09-07T04:08:43.132Z,96681.84
2022-09-07T04:11:13.856Z,96684.75
2022-09-07T04:13:41.554Z,96675.50
2022-09-07T04:16:22.741Z,96679.19
2022-09-07T04:18:50.423Z,96676.53
2022-09-07T04:21:21.499Z,96677.31
2022-09-07T04:23:48.601Z,96686.56
2022-09-07T04:26:18.191Z,96681.81
2022-09-07T04:28:45.695Z,96679.72
2022-09-07T04:31:13.737Z,96686.13
2022-09-07T04:33:40.387Z,96700.38
2022-09-07T04:36:07.225Z,96697.75
2022-09-07T04:38:33.833Z,96691.94
2022-09-07T04:41:06.675Z,96695.91
2022-09-07T04:43:33.317Z,96687.44
2022-09-07T04:46:05.592Z,96686.09
2022-09-07T04:48:32.432Z,96689.28
2022-09-07T04:51:09.989Z,96691.66
2022-09-07T04:53:38.150Z,96700.09
2022-09-07T04:56:05.276Z,96702.22
2022-09-07T04:58:32.193Z,96708.03
2022-09-07T05:01:03.387Z,96700.38
2022-09-07T05:03:31.974Z,96710.91
2022-09-07T05:06:01.439Z,96703.25
2022-09-07T05:08:28.623Z,96711.44
2022-09-07T05:10:55.656Z,96718.28
2022-09-07T05:13:22.206Z,96722.00
2022-09-07T05:15:48.707Z,96715.59
2022-09-07T05:18:15.307Z,96712.44
2022-09-07T05:20:41.994Z,96707.94
2022-09-07T05:23:08.846Z,96713.47
2022-09-07T05:25:42.067Z,96714.44
2022-09-07T05:28:09.338Z,96730.78
2022-09-07T05:33:22.495Z,96728.69
2022-09-07T05:36:02.202Z,96722.03
2022-09-07T05:38:29.687Z,96711.09
2022-09-07T05:40:56.597Z,96716.06
2022-09-07T05:43:23.109Z,96713.53
2022-09-07T05:45:49.672Z,96719.97
2022-09-07T05:48:16.226Z,96724.72
2022-09-07T05:50:52.769Z,96729.13
2022-09-07T05:53:20.673Z,96731.63
2022-09-07T05:55:47.679Z,96731.47
2022-09-07T05:58:14.243Z,96737.47
2022-09-07T06:00:40.794Z,96733.22
2022-09-07T06:03:07.482Z,96733.34
2022-09-07T06:05:34.984Z,96722.63
2022-09-07T06:08:01.677Z,96729.97
2022-09-07T06:10:46.628Z,96724.69
2022-09-07T06:13:13.201Z,96735.88
2022-09-07T06:15:39.986Z,96728.66
2022-09-07T06:18:06.590Z,96723.44
2022-09-07T06:20:33.028Z,96737.00
2022-09-07T06:22:59.575Z,96733.34
2022-09-07T06:25:26.033Z,96730.47
2022-09-07T06:27:53.867Z,96734.75
2022-09-07T06:30:22.342Z,96737.41
2022-09-07T06:32:49.015Z,96742.66
2022-09-07T06:35:15.864Z,96737.44
2022-09-07T06:37:43.101Z,96753.31
2022-09-07T06:40:11.066Z,96745.44
2022-09-07T06:42:38.581Z,96742.78
2022-09-07T06:45:05.793Z,96745.22
2022-09-07T06:47:32.339Z,96748.47
2022-09-07T06:49:59.131Z,96749.91
2022-09-07T06:52:26.491Z,96752.06
2022-09-07T06:57:22.591Z,96745.50
2022-09-07T06:59:49.022Z,96743.78
2022-09-07T07:02:15.699Z,96739.09
2022-09-07T07:04:42.323Z,96736.50
2022-09-07T07:07:12.476Z,96741.59
2022-09-07T07:09:39.326Z,96734.47
2022-09-07T07:12:06.255Z,96736.44
2022-09-07T07:14:34.679Z,96735.28
2022-09-07T07:17:02.570Z,96741.22
2022-09-07T07:19:29.195Z,96739.25
2022-09-07T07:22:29.685Z,96740.06
2022-09-07T07:24:42.285Z,96739.78
2022-09-07T07:27:08.835Z,96750.25
2022-09-07T07:29:35.504Z,96755.69
2022-09-07T07:32:02.230Z,96760.69
2022-09-07T07:34:29.127Z,96753.09
2022-09-07T07:36:55.722Z,96759.22
2022-09-07T07:42:09.007Z,96754.19
2022-09-07T07:44:35.567Z,96756.13
2022-09-07T07:47:02.746Z,96762.19
2022-09-07T07:49:29.273Z,96761.94
2022-09-07T07:54:43.222Z,96753.63
2022-09-07T07:57:10.356Z,96759.34
2022-09-07T07:59:37.020Z,96746.19
2022-09-07T08:02:05.284Z,96754.06
2022-09-07T08:04:33.476Z,96735.13
2022-09-07T08:07:00.172Z,96733.34
2022-09-07T08:09:27.239Z,96729.72
2022-09-07T08:11:53.764Z,96734.44
2022-09-07T08:14:21.897Z,96738.25
2022-09-07T08:16:48.383Z,96737.47
2022-09-07T08:19:14.852Z,96737.13
2022-09-07T08:21:41.379Z,96736.03
2022-09-07T08:24:07.771Z,96729.56
2022-09-07T08:26:34.449Z,96733.81
2022-09-07T08:29:00.954Z,96739.75
2022-09-07T08:31:27.426Z,96734.22
2022-09-07T08:33:54.167Z,96737.53
2022-09-07T08:36:21.505Z,96738.47
2022-09-07T08:38:48.363Z,96745.84
2022-09-07T08:41:56.666Z,96743.44
2022-09-07T08:44:42.825Z,96733.81
2022-09-07T08:47:25.606Z,96753.19
2022-09-07T08:50:02.767Z,96761.69
2022-09-07T08:52:40.303Z,96761.84
2022-09-07T08:55:16.404Z,96750.91
2022-09-07T08:57:56.947Z,96743.38
2022-09-07T09:00:23.497Z,96738.28
2022-09-07T09:05:55.604Z,96721.59
2022-09-07T09:08:57.086Z,96713.59
2022-09-07T09:11:43.628Z,96726.41
2022-09-07T09:14:33.453Z,96730.16
2022-09-07T09:17:33.571Z,96734.50
2022-09-07T09:20:18.814Z,96732.41
2022-09-07T09:22:45.728Z,96737.06
2022-09-07T09:25:27.006Z,96730.50
2022-09-07T09:27:54.096Z,96735.91
2022-09-07T09:30:23.062Z,96734.38
2022-09-07T09:32:52.824Z,96732.19
2022-09-07T09:35:50.064Z,96719.50
2022-09-07T09:38:43.629Z,96738.00
2022-09-07T09:41:12.367Z,96731.44
2022-09-07T09:43:46.541Z,96730.50
2022-09-07T09:46:17.863Z,96736.78
2022-09-07T09:48:52.127Z,96731.34
2022-09-07T09:54:20.650Z,96735.13
2022-09-07T09:56:47.381Z,96724.78
2022-09-07T10:05:35.031Z,96720.59
2022-09-07T10:08:02.817Z,96714.84
2022-09-07T10:10:30.163Z,96719.69
2022-09-07T10:12:57.147Z,96714.91
2022-09-07T10:15:32.846Z,96711.06
2022-09-07T10:18:04.540Z,96709.19
2022-09-07T10:20:33.583Z,96717.34
2022-09-07T10:23:00.911Z,96694.44
2022-09-07T10:25:33.551Z,96702.75
2022-09-07T10:28:15.458Z,96701.97
2022-09-07T10:31:01.006Z,96690.25
2022-09-07T10:34:25.835Z,96688.94
2022-09-07T10:36:48.630Z,96685.44
2022-09-07T10:39:20.323Z,96682.16
2022-09-07T10:41:59.386Z,96680.41
2022-09-07T10:44:38.149Z,96679.09
2022-09-07T10:47:17.713Z,96676.44
2022-09-07T10:53:23.612Z,96674.81
2022-09-07T10:56:07.510Z,96675.47
2022-09-07T10:59:04.407Z,96671.50
2022-09-07T11:01:47.613Z,96661.84
2022-09-07T11:04:39.841Z,96667.69
2022-09-07T11:07:40.388Z,96656.22
2022-09-07T11:10:30.334Z,96655.09
2022-09-07T11:13:01.312Z,96653.66
2022-09-07T11:15:32.157Z,96658.22
2022-09-07T11:18:16.863Z,96659.66
2022-09-07T11:20:56.245Z,96663.72
2022-09-07T11:23:40.795Z,96641.94
2022-09-07T11:26:16.327Z,96644.88
2022-09-07T11:29:29.106Z,96637.84
2022-09-07T11:31:47.642Z,96634.75
2022-09-07T11:34:31.831Z,96628.03
2022-09-07T11:37:14.935Z,96637.19
2022-09-07T11:39:48.074Z,96625.28
2022-09-07T11:45:36.885Z,96625.97
2022-09-07T11:48:06.298Z,96621.06
2022-09-07T11:50:37.040Z,96608.94
2022-09-07T11:53:18.250Z,96622.25
2022-09-07T11:55:49.625Z,96623.63
2022-09-07T11:58:49.389Z,96627.00
2022-09-07T12:01:37.191Z,96618.22
2022-09-07T12:04:24.807Z,96616.19
2022-09-07T12:07:26.926Z,96606.69
2022-09-07T12:09:53.487Z,96609.44
2022-09-07T12:12:56.577Z,96605.59
2022-09-07T12:15:32.772Z,96586.88
2022-09-07T12:18:16.229Z,96599.59
2022-09-07T12:20:47.942Z,96592.34
2022-09-07T12:23:22.042Z,96596.47
2022-09-07T12:25:50.608Z,96603.13
2022-09-07T12:28:22.904Z,96602.13
2022-09-07T12:31:05.379Z,96594.00
2022-09-07T12:33:35.493Z,96584.91
2022-09-07T12:36:22.543Z,96576.69
2022-09-07T12:39:06.033Z,96580.63
2022-09-07T12:41:43.254Z,96570.31
2022-09-07T12:44:16.663Z,96566.13
2022-09-07T12:46:50.615Z,96568.50
2022-09-07T12:49:35.721Z,96565.03
2022-09-07T12:52:31.482Z,96566.31
2022-09-07T12:58:57.554Z,96555.34
2022-09-07T13:01:54.905Z,96549.19
2022-09-07T13:04:30.702Z,96554.09
2022-09-07T13:07:24.966Z,96561.41
2022-09-07T13:10:04.605Z,96545.16
2022-09-07T13:12:54.689Z,96548.28
2022-09-07T13:15:44.689Z,96545.69
2022-09-07T13:18:29.412Z,96551.94
2022-09-07T13:21:08.079Z,96549.00
2022-09-07T13:23:40.960Z,96539.72
2022-09-07T13:26:10.695Z,96548.56
2022-09-07T13:28:45.861Z,96534.47
2022-09-07T13:31:42.966Z,96537.03
2022-09-07T13:34:34.326Z,96535.53
2022-09-07T13:37:03.148Z,96535.88
2022-09-07T13:39:43.189Z,96534.16
2022-09-07T13:42:16.368Z,96538.22
2022-09-07T13:44:50.979Z,96536.03
2022-09-07T13:47:50.707Z,96505.78
2022-09-07T13:50:29.004Z,96504.28
2022-09-07T13:53:33.318Z,96521.50
2022-09-07T13:56:12.940Z,96518.03
2022-09-07T13:58:41.767Z,96522.19
2022-09-07T14:01:19.569Z,96517.50
2022-09-07T14:03:56.045Z,96510.91
2022-09-07T14:06:22.464Z,96519.84
2022-09-07T14:08:51.519Z,96508.19
2022-09-07T14:11:26.828Z,96519.03
2022-09-07T14:14:13.827Z,96516.19
2022-09-07T14:16:44.257Z,96516.78
2022-09-07T14:19:16.368Z,96523.16
2022-09-07T14:21:42.942Z,96507.81
2022-09-07T14:24:27.821Z,96512.81
2022-09-07T14:26:54.850Z,96507.41
2022-09-07T14:29:30.013Z,96503.56
2022-09-07T14:31:58.488Z,96493.03
2022-09-07T14:34:29.745Z,96504.34
2022-09-07T14:37:01.494Z,96508.75
2022-09-07T14:39:29.798Z,96499.03
2022-09-07T14:41:57.754Z,96509.50
2022-09-07T14:44:32.750Z,96499.78
2022-09-07T14:47:04.057Z,96487.19
2022-09-07T14:49:30.775Z,96488.50
2022-09-07T14:51:57.307Z,96486.84
2022-09-07T14:54:28.305Z,96493.59
2022-09-07T14:57:11.538Z,96477.94
2022-09-07T14:59:45.022Z,96485.41
2022-09-07T15:02:29.847Z,96485.03
2022-09-07T15:05:14.441Z,96482.84
2022-09-07T15:07:46.306Z,96465.75
2022-09-07T15:10:21.744Z,96470.78
2022-09-07T15:12:50.395Z,96455.84
2022-09-07T15:15:26.145Z,96463.47
2022-09-07T15:17:55.541Z,96460.97
2022-09-07T15:20:36.557Z,96455.97
2022-09-07T15:23:13.042Z,96448.72
2022-09-07T15:25:40.933Z,96440.03
2022-09-07T15:28:08.027Z,96446.44
2022-09-07T15:30:34.934Z,96447.38
2022-09-07T15:33:01.457Z,96446.16
2022-09-07T15:35:27.935Z,96438.38
2022-09-07T15:38:02.763Z,96448.41
2022-09-07T15:40:56.429Z,96436.88
2022-09-07T15:43:28.325Z,96440.78
2022-09-07T15:45:55.045Z,96432.16
2022-09-07T15:48:25.321Z,96429.34
2022-09-07T15:51:00.227Z,96438.88
2022-09-07T15:56:14.508Z,96428.03
2022-09-07T15:58:43.468Z,96424.88
2022-09-07T16:03:59.127Z,96433.09
2022-09-07T16:06:26.822Z,96423.13
2022-09-07T16:08:53.440Z,96427.72
2022-09-07T16:11:25.862Z,96437.88
2022-09-07T16:14:02.209Z,96416.84
2022-09-07T16:19:20.659Z,96423.91
2022-09-07T16:21:47.536Z,96421.66
2022-09-07T16:24:14.023Z,96427.84
2022-09-07T16:26:40.634Z,96423.00
2022-09-07T16:29:07.289Z,96426.97
2022-09-07T16:31:35.034Z,96429.09
2022-09-07T16:34:02.750Z,96428.09
2022-09-07T16:36:30.391Z,96421.59
2022-09-07T16:38:59.641Z,96420.56
2022-09-07T16:41:31.604Z,96423.06
2022-09-07T16:43:58.902Z,96427.47
2022-09-07T16:46:28.482Z,96425.69
2022-09-07T16:48:55.102Z,96407.81
2022-09-07T16:51:22.705Z,96420.72
2022-09-07T16:53:51.173Z,96407.25
2022-09-07T16:56:20.257Z,96415.84
2022-09-07T16:58:50.040Z,96409.19
2022-09-07T17:01:19.390Z,96406.94
2022-09-07T17:03:46.682Z,96395.72
2022-09-07T17:06:14.255Z,96410.63
2022-09-07T17:08:41.977Z,96407.94
2022-09-07T17:11:09.505Z,96413.75
2022-09-07T17:13:37.662Z,96402.00
2022-09-07T17:16:06.314Z,96388.22
2022-09-07T17:21:20.500Z,96404.50
2022-09-07T17:23:54.257Z,96413.06
2022-09-07T17:26:22.464Z,96421.94
2022-09-07T17:28:51.379Z,96412.53
2022-09-07T17:34:07.297Z,96416.69
2022-09-07T17:36:34.470Z,96412.31
2022-09-07T17:39:18.495Z,96418.53
2022-09-07T17:41:47.623Z,96416.16
2022-09-07T17:44:14.435Z,96418.84
2022-09-07T17:46:40.918Z,96414.13
2022-09-07T17:49:12.050Z,96413.69
2022-09-07T17:51:38.695Z,96392.66
2022-09-07T17:54:09.941Z,96405.09
2022-09-07T17:56:40.048Z,96393.13
2022-09-07T18:01:56.533Z,96387.81
2022-09-07T18:04:23.777Z,96393.84
2022-09-07T18:06:50.799Z,96393.88
2022-09-07T18:09:17.407Z,96394.63
2022-09-07T18:11:45.942Z,96399.47
2022-09-07T18:14:14.370Z,96399.34
2022-09-07T18:16:41.321Z,96402.16
2022-09-07T18:19:08.618Z,96399.34
2022-09-07T18:21:37.584Z,96395.69
2022-09-07T18:24:07.744Z,96396.19
2022-09-07T18:26:39.033Z,96400.41
2022-09-07T18:29:18.758Z,96402.78
2022-09-07T18:31:54.005Z,96399.63
2022-09-07T18:34:20.744Z,96415.75
2022-09-07T18:36:47.393Z,96413.84
2022-09-07T18:39:13.898Z,96421.84
2022-09-07T18:41:40.827Z,96418.22
2022-09-07T18:45:27.067Z,96420.91
2022-09-07T18:46:54.373Z,96404.69
2022-09-07T18:49:20.866Z,96426.03
2022-09-07T18:54:33.730Z,96428.38
2022-09-07T18:57:00.365Z,96424.09
2022-09-07T18:59:26.823Z,96425.97
2022-09-07T19:01:54.119Z,96422.63
2022-09-07T19:04:21.424Z,96430.63
2022-09-07T19:06:48.096Z,96419.28
2022-09-07T19:09:14.889Z,96426.38
2022-09-07T19:11:42.365Z,96431.06
2022-09-07T19:14:09.166Z,96433.06
2022-09-07T19:16:36.989Z,96424.03
2022-09-07T19:19:06.513Z,96431.75
2022-09-07T19:21:38.826Z,96433.88
2022-09-07T19:24:07.849Z,96448.78
2022-09-07T19:26:37.312Z,96452.38
2022-09-07T19:29:05.447Z,96451.84
2022-09-07T19:31:32.219Z,96446.75
2022-09-07T19:34:01.647Z,96442.69
2022-09-07T19:36:30.260Z,96437.31
2022-09-07T19:38:56.834Z,96441.69
2022-09-07T19:41:23.698Z,96444.94
2022-09-07T19:43:50.797Z,96436.97
2022-09-07T19:46:21.513Z,96438.75
2022-09-07T19:48:51.078Z,96441.53
2022-09-07T19:51:17.675Z,96427.97
2022-09-07T19:53:45.043Z,96430.91
2022-09-07T19:56:14.238Z,96418.38
2022-09-07T19:58:43.688Z,96428.38
2022-09-07T20:01:13.650Z,96422.91
2022-09-07T20:03:44.264Z,96418.09
2022-09-07T20:06:14.623Z,96422.84
2022-09-07T20:08:42.746Z,96419.28
2022-09-07T20:11:11.863Z,96420.66
2022-09-07T20:13:39.648Z,96416.38
2022-09-07T20:16:08.947Z,96414.78
2022-09-07T20:18:36.177Z,96420.72
2022-09-07T20:21:05.017Z,96416.22
2022-09-07T20:23:31.783Z,96408.38
2022-09-07T20:26:03.809Z,96403.13
2022-09-07T20:28:31.264Z,96402.06
2022-09-07T20:30:58.111Z,96395.81
2022-09-07T20:33:24.656Z,96395.66
2022-09-07T20:35:51.370Z,96392.75
2022-09-07T20:38:20.578Z,96396.50
2022-09-07T20:40:51.718Z,96384.22
2022-09-07T20:43:18.592Z,96385.84
2022-09-07T20:45:45.163Z,96376.41
2022-09-07T20:48:11.791Z,96381.56
2022-09-07T20:50:38.291Z,96377.38
2022-09-07T20:53:04.689Z,96375.06
2022-09-07T20:55:31.131Z,96379.44
2022-09-07T20:57:57.584Z,96370.31
2022-09-07T21:00:24.949Z,96386.69
2022-09-07T21:02:51.451Z,96388.56
2022-09-07T21:05:17.873Z,96381.56
2022-09-07T21:07:44.280Z,96375.72
2022-09-07T21:10:10.747Z,96376.28
2022-09-07T21:12:37.145Z,96382.34
2022-09-07T21:15:03.891Z,96381.44
2022-09-07T21:17:30.329Z,96378.69
2022-09-07T21:19:56.755Z,96382.63
2022-09-07T21:22:23.174Z,96384.38
2022-09-07T21:24:49.639Z,96376.56
2022-09-07T21:27:16.143Z,96384.34
2022-09-07T21:29:42.468Z,96380.75
2022-09-07T21:32:08.929Z,96387.78
2022-09-07T21:34:35.370Z,96368.78
2022-09-07T21:37:01.805Z,96385.00
2022-09-07T21:39:28.239Z,96388.28
2022-09-07T21:41:54.925Z,96390.06
2022-09-07T21:44:21.822Z,96390.34
2022-09-07T21:46:48.434Z,96383.88
2022-09-07T21:49:15.051Z,96378.38
2022-09-07T21:51:41.464Z,96362.03
2022-09-07T21:54:08.626Z,96364.59
2022-09-07T21:56:35.167Z,96352.78
2022-09-07T21:59:02.447Z,96348.84
2022-09-07T22:03:16.774Z,96342.13
2022-09-07T22:05:43.202Z,96346.66
2022-09-07T22:08:09.705Z,96360.94
2022-09-07T22:10:36.265Z,96349.13
2022-09-07T22:13:02.752Z,96347.94
2022-09-07T22:15:31.149Z,96346.28
2022-09-07T22:17:57.630Z,96336.19
2022-09-07T22:20:24.122Z,96345.13
2022-09-07T22:22:50.604Z,96339.50
2022-09-07T22:25:17.073Z,96347.50
2022-09-07T22:27:43.551Z,96337.28
2022-09-07T22:30:11.414Z,96334.13
2022-09-07T22:32:37.801Z,96336.69
2022-09-07T22:35:04.630Z,96349.47
2022-09-07T22:37:31.085Z,96331.75
2022-09-07T22:39:57.665Z,96328.31
2022-09-07T22:42:24.599Z,96333.81
2022-09-07T22:44:51.108Z,96333.63
2022-09-07T22:47:17.519Z,96332.44
2022-09-07T22:49:43.984Z,96334.03
2022-09-07T22:52:10.485Z,96339.81
2022-09-07T22:54:37.017Z,96340.63
2022-09-07T22:57:03.497Z,96355.06
2022-09-07T22:59:30.298Z,96359.59
2022-09-07T23:01:56.816Z,96361.78
2022-09-07T23:04:24.794Z,96369.66
2022-09-07T23:06:54.034Z,96404.53
2022-09-07T23:09:20.820Z,96443.38
2022-09-07T23:11:48.046Z,96449.06
2022-09-07T23:14:24.706Z,96452.41
2022-09-07T23:16:51.198Z,96433.13
2022-09-07T23:19:19.549Z,96453.28
2022-09-07T23:21:46.092Z,96463.06
2022-09-07T23:24:13.719Z,96473.34
2022-09-07T23:26:40.440Z,96486.75
2022-09-07T23:29:07.274Z,96497.44
2022-09-07T23:31:34.999Z,96497.41
2022-09-07T23:34:03.622Z,96494.41
2022-09-07T23:36:30.494Z,96506.25
2022-09-07T23:38:59.250Z,96498.13
2022-09-07T23:41:26.905Z,96494.19
2022-09-07T23:43:54.527Z,96482.06
2022-09-07T23:46:21.368Z,96481.03
2022-09-07T23:48:48.133Z,96466.19
2022-09-07T23:51:18.720Z,96471.50
2022-09-07T23:53:47.989Z,96467.22
2022-09-07T23:56:14.546Z,96461.34
2022-09-07T23:58:40.907Z,96458.47
